Gouch Mill, Missouri
Current Conditions -  °F | °C
As of 9:55 PM on Sunday 23 Nov 2014 (Local Time) from KVER Reporting Station
Moderate Rain Moderate Rain  
Wind Chill: 38°   Ceiling: 1000
Heat Index: 46°   Visibility: 5mi
Dew Point: 45°   Wind: 18mph
Humidity: 98%   Direction: 310°NW
Pressure: 29.32"   Gusts: 29mph
Location:  38.8294°N, 92.5997°W
Report Text: KVER 240355Z AUTO 31016G25KT 5SM RA OVC010 08/07 A2932 RMK AO2 T00760073
Loading
Personal Weather Stations






























Interactive Weather Map New forecast layout! Learn more

10-Day Weather Forecast

Advertisements
Track Severe Weather on mobile